Oakland, MD

3:22 PM EST on December 08, 2016 (GMT -0500)
Mountainside Road | | Change Station

Elev 3940 ft 39.05 °N, 79.38 °W | Updated 48 seconds ago

Partly Cloudy
Partly Cloudy
21.9 °F
Feels Like 6 °F
N
21.7
Wind Variable Wind from West
Gusts 25.0 mph

Today
High -- | Low -- °F
--% Chance of Precip.
Yesterday
High -- | Low -- °F
Precip. -- in
Pressure 29.97 in
Visibility 10.0 miles
Clouds Scattered Clouds 3100 ft
Scattered Clouds 4000 ft
Windchill 6 °F
Dew Point 16.0 °F
Humidity 71%
Rainfall 0.00 in
Snow Depth Not available.
7:25 AM 4:53 PM
Waxing Gibbous, 66% visible
METAR K2G4 082005Z AUTO 26010G17KT 232V292 10SM SCT031 SCT040 M02/M10 A2997 RMK AO1
Pressure 29.97 in
Visibility 10.0 miles
Clouds Scattered Clouds 3100 ft
Scattered Clouds 4000 ft
Windchill 6 °F
Dew Point 16.0 °F
Humidity 71%
Rainfall 0.00 in
Snow Depth Not available.
7:25 AM 4:53 PM
Waxing Gibbous, 66% visible
METAR K2G4 082005Z AUTO 26010G17KT 232V292 10SM SCT031 SCT040 M02/M10 A2997 RMK AO1

10-Day Weather Forecast

Almanac

Astronomy

Dec. 08, 2016 Rise Set
Actual Time
Civil Twilight
Nautical Twilight
Astronomical Twilight
Moon
Length of Visible Light
Length of Day
Tomorrow will be .
, % of the Moon is Illuminated

Today's Extremes

State Highs State Lows

Community

WunderPhotos

Upload Photos

1,956,277 photos uploaded!

WunderBlog® & News

Nearby

Air Quality

  Air Quality AQ Index Pollutant
Not available.

Snow Depth

Station Depth Elevation

Earthquake Activity

City Distance Mag. Time & Date
Minimum magnitude displayed is 2.5.

Coastal Water Temperatures

Place Temperature

Stations

Nearby Weather Stations

Station Location Temp. Windchill Dew Point Humidity Wind Precip. Elev Updated Type
                   

Watches & Warnings

There are currently no watches in effect.